Skip Navigation LinksHome page > Weather > Current weather Skip Navigation Links

Current Weather

Honolulu Intl, Honolulu

For information only: do not use for flight planning or navigation.
Latest weather
Observation time Monday, May 22, 2017 4:53 AM HST
Local time Monday, May 22, 2017 5:40 AM HST
Flight conditions Visual Meteorological Conditions
Winds
Wind direction Northeast (50°)
Wind speed 9 mph
Visibility 10 mi.
Sky condition
Ceiling unlimited
Cloud layer few clouds 2,900 ft.
Cloud layer scattered clouds 5,000 ft.
Temperature 75°F
Dewpoint 61°F
Altimeter 30.01 in.Hg
Pressure change last 3 hours0.00 in.Hg
Pressure rising more quickly
Derived measurements
Relative humidity 62%
Density altitude 1197 ft.
Sea-level pressure 30.01 in.Hg
Remarks
Automated weather observing station with precipitation discriminator.
METAR PHNL 221453Z 05008KT 10SM FEW029 SCT050 24/16 A3001 RMK AO2 SLP163 T02390161 53001

Settings

Location code

InnerDrive.Weather 4.0.6144.1 Release CLR 4.0.30319.36366
Copyright ©2015 Inner Drive Technology. All rights reserved. Portions Copyright ©1986-2015 David Braverman.

Find weather

Site navigation


Skip Navigation Links

Place info

Page info

PayPal - The safer, easier way to pay online!

Return home.

Copyright ©2017 Inner Drive Technology. Purveyors of fine, hand-crafted computer software. Page printed 2017-05-22T15:40:44 UTC.